Mc Henry, North Dakota
Current Conditions -  °F | °C
As of 9:55 PM on Tuesday 21 Oct 2014 (Local Time) from K46D Reporting Station
Haze Haze  
Wind Chill: 61°   Ceiling: Unl
Heat Index: 61°   Visibility: 3mi
Dew Point: 46°   Wind: 23mph
Humidity: 59%   Direction: 160°SSE
Pressure: 29.77"   Gusts: 29mph
Location:  47.5438°N, 98.5641°W
Report Text: K46D 220255Z AUTO 16020G25KT 3SM HZ CLR 16/08 A2977 RMK AO2
Loading
Personal Weather Stations






























Interactive Weather Map
Tropical Storm Tracking
New forecast layout! Learn more

10-Day Weather Forecast

Advertisements
Track Severe Weather on mobile